Nearby METAR Reports

 

KHIF - Hill Afb/Ogden, Utah, USA
Distance from station: ENE 6mi, 9km
Updated: Sun, 18-Feb-2018 8:49pm MST
Light snow, Mist, Overcast
Light snow, Mist, Overcast
 Wind from N
Wind: N 8 mph , 13 km/h
Temperature: 28°F , -2°C
Wind Chill: 20°F , -7°C
Dew Point: 28°F , -2°C
Humidity: 100%
Barometer: 29.51 inHg , 999.3 hPa
Summary: Light snow, Mist
Clouds: Overcast
Visibility: 1 1/2 miles , 2 km
Cloud details: Overcast 1600 ft
2018/02/19 03:49 KHIF 190349Z AUTO 35007KT 1 1/2SM -SN BR OVC016 M02/M02 A2951 RMK AO2 VIS 7/8 RWY14 CIG 010 RWY14 SLP987 $
KOGD - Ogden, Utah, USA
Distance from station: NNE 9mi, 14km
Updated: Sun, 18-Feb-2018 8:53pm MST
Light snow, Mist, Overcast
Light snow, Mist, Overcast
 Wind from N
Wind: N 8 mph , 13 km/h
Temperature: 30°F , -1°C
Wind Chill: 22°F , -6°C
Dew Point: 28°F , -2°C
Humidity: 93%
Barometer: 29.53 inHg , 1000 hPa
Summary: Light snow, Mist
Clouds: Overcast
Visibility: 1 mile , 2 km
Cloud details: Overcast 1400 ft
2018/02/19 03:53 KOGD 190353Z AUTO 01007KT 1SM -SN BR VV014 M01/M02 A2953 RMK AO2 SLP988 P0002 T10111022
 
KSLC - Salt Lake City, Utah, USA
Distance from station: SSE 21mi, 34km
Updated: Sun, 18-Feb-2018 8:54pm MST
Light snow, Mist, Overcast
Light snow, Mist, Overcast
 Wind from N
Wind: N 9 mph , 15 km/h
Temperature: 34°F , 1°C
Wind Chill: 27°F , -3°C
Dew Point: 30°F , -1°C
Humidity: 87%
Barometer: 29.54 inHg , 1000.3 hPa
Summary: Light snow, Mist
Clouds: Overcast
Visibility: 1 1/4 miles , 2 km
Cloud details: Few Clouds 500 ft
Few Clouds 900 ft
Overcast 1400 ft
2018/02/19 03:54 KSLC 190354Z 35008KT 1 1/4SM -SN BR FEW005 FEW009 OVC014 01/M01 A2954 RMK AO2 TWR VIS 1 3/4 CIG 010 NW RNWY SLP992 P0005 T00061006
KLGU - Logan, Utah, USA
Distance from station: NNE 50mi, 80km
Updated: Sun, 18-Feb-2018 8:51pm MST
Light snow, Mist, Overcast
Light snow, Mist, Overcast
 Wind from calm
Wind: Calm
Temperature: 30°F , -1°C
Dew Point: 27°F , -3°C
Humidity: 86%
Barometer: 29.57 inHg , 1001.4 hPa
Summary: Light snow, Mist
Clouds: Overcast
Visibility: 6 miles , 10 km
Cloud details: Overcast 400 ft
2018/02/19 03:51 KLGU 190351Z AUTO 00000KT 6SM -SN BR OVC004 M01/M03 A2957 RMK AO2 SNB48 CIG 002V006 SLP017 P0000 T10061028 $
 
K36U - Heber/Russ Mcdon, Utah, USA
Distance from station: SE 53mi, 85km
Updated: Wed, 11-Oct-2017 6:50pm MDT
NOT Current
Clear
Clear
 Wind from SSW
Wind: SSW 10 mph , 17 km/h, Gust: 18 mph , 30 km/h
Temperature: 63°F , 17°C
Dew Point: 16°F , -9°C
Humidity: 16%
Barometer: 29.87 inHg , 1011.5 hPa
Clouds: Clear
Visibility: 10 miles , 16 km
2017/10/12 00:50 K36U 120050Z AUTO 21009G16KT 10SM CLR 17/M09 A2987 RMK AO2
KEVW - Evanston, Wyoming, USA
Distance from station: ENE 55mi, 89km
Updated: Sun, 18-Feb-2018 8:53pm MST
Snow, Freezing, Fog, Overcast
Snow, Freezing, Fog, Overcast
 Wind from N
Wind: N 8 mph , 13 km/h
Temperature: 21°F , -6°C
Wind Chill: 11°F , -12°C
Dew Point: 19°F , -7°C
Humidity: 93%
Barometer: 29.48 inHg , 998.3 hPa
Summary: Snow, Freezing, Fog
Clouds: Overcast
Visibility: 1/2 mile , 2 km
Cloud details: Overcast 700 ft
2018/02/19 03:53 KEVW 190353Z AUTO 35007KT 1/2SM SN FZFG VV007 M06/M07 A2948 RMK AO2 SLP977 P0006 T10611067
 
KPVU - Provo Muni, Utah, USA
Distance from station: SSE 62mi, 100km
Updated: Sun, 18-Feb-2018 8:56pm MST
Overcast
Overcast
 Wind from NW
Wind: NW 14 mph , 22 km/h
Temperature: 32°F , 0°C
Wind Chill: 22°F , -6°C
Dew Point: 30°F , -1°C
Humidity: 93%
Barometer: 29.52 inHg , 999.7 hPa
Clouds: Overcast
Visibility: 7 miles , 11 km
Cloud details: Overcast 400 ft
2018/02/19 03:56 KPVU 190356Z 31012KT 7SM OVC004 00/M01 A2952 RMK AO2 CIG 003V009 SLP990 P0002 T00001006
KDPG - Dugway Prvg Grou, Utah, USA
Distance from station: SW 75mi, 121km
Updated: Fri, 16-Feb-2018 11:50am MST
NOT Current
Few Clouds
Few Clouds
 Wind from S
Wind: S 10 mph , 17 km/h, Gust: 17 mph , 28 km/h
Temperature: 39°F , 4°C
Wind Chill: 32°F , 0°C
Dew Point: 9°F , -13°C
Humidity: 28%
Barometer: 30.27 inHg , 1025.1 hPa
Clouds: Few Clouds
Visibility: 40 miles , 64 km
Cloud details: Few Clouds 14000 ft
2018/02/16 18:50 KDPG 161850Z 18009G15KT 40SM FEW140 04/M13 A3027 RMK SLP263 T00371131 LAST
 
KENV - Wendover (aut), Utah, USA
Distance from station: WSW 105mi, 169km
Updated: Sun, 18-Feb-2018 8:56pm MST
Light snow, Overcast
Light snow, Overcast
 Wind from N
Wind: N 17 mph , 28 km/h, Gust: 28 mph , 44 km/h
Temperature: 30°F , -1°C
Wind Chill: 18°F , -8°C
Dew Point: 25°F , -4°C
Humidity: 80%
Barometer: 29.57 inHg , 1001.4 hPa
Summary: Light Snow
Clouds: Overcast
Visibility: 3 miles , 5 km
Cloud details: Partly cloudy 1800 ft
Mostly cloudy 3300 ft
Overcast 6000 ft
2018/02/19 03:56 KENV 190356Z AUTO 01015G24KT 3SM -SN SCT018 BKN033 OVC060 M01/M04 A2957 RMK AO2 RAB49E54SNB54 SLP022 P0000 T10061039 FZRANO
KPUC - Price, Utah, USA
Distance from station: SE 123mi, 197km
Updated: Sun, 18-Feb-2018 8:53pm MST
Clear
Clear
 Wind from SSW
Wind: SSW 20 mph , 31 km/h, Gust: 28 mph , 44 km/h
Temperature: 45°F , 7°C
Wind Chill: 37°F , 3°C
Dew Point: 16°F , -9°C
Humidity: 31%
Barometer: 29.40 inHg , 995.6 hPa
Clouds: Clear
Visibility: 10 miles , 16 km
2018/02/19 03:53 KPUC 190353Z AUTO 20017G24KT 10SM CLR 07/M09 A2940 RMK AO2 PK WND 23030/0256 SLP950 T00721089
 
KPIH - Pocatello, Idaho, USA
Distance from station: NNW 130mi, 208km
Updated: Sun, 18-Feb-2018 8:53pm MST
Few Clouds
Few Clouds
 Wind from SW
Wind: SW 16 mph , 26 km/h, Gust: 24 mph , 39 km/h
Temperature: 28°F , -2°C
Wind Chill: 16°F , -9°C
Dew Point: 21°F , -6°C
Humidity: 74%
Barometer: 29.55 inHg , 1000.7 hPa
Clouds: Few Clouds
Visibility: 10 miles , 16 km
Cloud details: Few Clouds 1700 ft
2018/02/19 03:53 KPIH 190353Z 22014G21KT 10SM FEW017 M02/M06 A2955 RMK AO2 SLP024 T10221056
KBYI - Burley, Idaho, USA
Distance from station: NW 134mi, 216km
Updated: Sun, 18-Feb-2018 8:53pm MST
Clear
Clear
 Wind from SW
Wind: SW 8 mph , 13 km/h
Temperature: 25°F , -4°C
Wind Chill: 16°F , -9°C
Dew Point: 19°F , -7°C
Humidity: 80%
Barometer: 29.56 inHg , 1001 hPa
Clouds: Clear
Visibility: 10 miles , 16 km
2018/02/19 03:53 KBYI 190353Z AUTO 23007KT 10SM CLR M04/M07 A2956 RMK AO2 SLP026 T10391072
 
KVEL - Vernal, Utah, USA
Distance from station: ESE 140mi, 226km
Updated: Sun, 18-Feb-2018 8:53pm MST
Mostly cloudy
Mostly cloudy
 Wind from WSW
Wind: WSW 6 mph , 9 km/h
Temperature: 46°F , 8°C
Wind Chill: 43°F , 6°C
Dew Point: 19°F , -7°C
Humidity: 34%
Barometer: 29.37 inHg , 994.6 hPa
Clouds: Mostly cloudy
Visibility: 10 miles , 16 km
Cloud details: Few Clouds 9000 ft
Mostly cloudy 11000 ft
2018/02/19 03:53 KVEL 190353Z AUTO 24005KT 10SM FEW090 BKN110 08/M07 A2937 RMK AO2 WSHFT 0334 SLP927 T00831072
KBPI - Big Piney, Wyoming, USA
Distance from station: NE 145mi, 234km
Updated: Sun, 18-Feb-2018 8:53pm MST
Overcast
Overcast
 Wind from S
Wind: S 6 mph , 9 km/h
Temperature: 19°F , -7°C
Wind Chill: 11°F , -12°C
Dew Point: 16°F , -9°C
Humidity: 86%
Barometer: 29.49 inHg , 998.6 hPa
Clouds: Overcast
Visibility: 10 miles , 16 km
Cloud details: Mostly cloudy 5000 ft
Overcast 8500 ft
2018/02/19 03:53 KBPI 190353Z AUTO 19005KT 10SM BKN050 OVC085 M07/M09 A2949 RMK AO2 SNE30 SLP984 P0000 T10671089